Austwell, Texas
Current Conditions -  °F | °C
As of 6:35 PM on Friday 31 Oct 2014 (Local Time) from KPKV Reporting Station
Clear Clear  
Wind Chill: 73°   Ceiling: Unl
Heat Index: 73°   Visibility: 10mi
Dew Point: 44°   Wind: 7mph
Humidity: 36%   Direction: 20°NNE
Pressure: 30.17"   Gusts: NA
Location:  28.39°N, 96.84°W
Report Text: KPKV 312335Z AUTO 02006KT 10SM CLR 23/07 A3017 RMK AO2 T02260066
Loading
Personal Weather Stations






























Interactive Weather Map
Tropical Storm Tracking
New forecast layout! Learn more

10-Day Weather Forecast

Advertisements
Track Severe Weather on mobile